sensor_id;sensor_type;location;lat;lon;timestamp;P1;durP1;ratioP1;P2;durP2;ratioP2
51838;SDS011;37886;53.174;6.368;2022-11-11T00:00:32;17.77;;;9.15;;
51838;SDS011;37886;53.174;6.368;2022-11-11T00:02:58;21.15;;;9.63;;
51838;SDS011;37886;53.174;6.368;2022-11-11T00:05:24;26.77;;;10.20;;
51838;SDS011;37886;53.174;6.368;2022-11-11T00:07:51;25.50;;;9.82;;
51838;SDS011;37886;53.174;6.368;2022-11-11T00:10:18;25.30;;;9.70;;
51838;SDS011;37886;53.174;6.368;2022-11-11T00:12:44;25.73;;;10.52;;
51838;SDS011;37886;53.174;6.368;2022-11-11T00:15:10;20.65;;;10.13;;
51838;SDS011;37886;53.174;6.368;2022-11-11T00:17:36;20.83;;;11.25;;
51838;SDS011;37886;53.174;6.368;2022-11-11T00:20:20;24.58;;;11.38;;
51838;SDS011;37886;53.174;6.368;2022-11-11T00:23:04;21.45;;;10.18;;
51838;SDS011;37886;53.174;6.368;2022-11-11T00:25:52;27.98;;;10.88;;
51838;SDS011;37886;53.174;6.368;2022-11-11T00:28:18;22.80;;;11.90;;
51838;SDS011;37886;53.174;6.368;2022-11-11T00:30:44;22.40;;;11.25;;
51838;SDS011;37886;53.174;6.368;2022-11-11T00:33:10;22.77;;;11.52;;
51838;SDS011;37886;53.174;6.368;2022-11-11T00:35:36;24.50;;;11.20;;
51838;SDS011;37886;53.174;6.368;2022-11-11T00:38:20;21.65;;;11.60;;
51838;SDS011;37886;53.174;6.368;2022-11-11T00:41:04;22.50;;;10.77;;
51838;SDS011;37886;53.174;6.368;2022-11-11T00:43:30;21.38;;;12.68;;
51838;SDS011;37886;53.174;6.368;2022-11-11T00:45:56;25.13;;;12.25;;
51838;SDS011;37886;53.174;6.368;2022-11-11T00:48:42;25.95;;;12.23;;
51838;SDS011;37886;53.174;6.368;2022-11-11T00:51:26;22.65;;;11.27;;
51838;SDS011;37886;53.174;6.368;2022-11-11T00:53:52;22.00;;;11.38;;
51838;SDS011;37886;53.174;6.368;2022-11-11T00:56:18;20.38;;;11.43;;
51838;SDS011;37886;53.174;6.368;2022-11-11T00:58:45;23.48;;;11.98;;
51838;SDS011;37886;53.174;6.368;2022-11-11T01:01:11;22.33;;;11.93;;
51838;SDS011;37886;53.174;6.368;2022-11-11T01:03:37;25.27;;;12.55;;
51838;SDS011;37886;53.174;6.368;2022-11-11T01:06:03;22.23;;;11.45;;
51838;SDS011;37886;53.174;6.368;2022-11-11T01:08:30;22.33;;;11.18;;
51838;SDS011;37886;53.174;6.368;2022-11-11T01:10:56;22.75;;;12.23;;
51838;SDS011;37886;53.174;6.368;2022-11-11T01:13:23;22.52;;;11.73;;
51838;SDS011;37886;53.174;6.368;2022-11-11T01:15:52;20.42;;;11.85;;
51838;SDS011;37886;53.174;6.368;2022-11-11T01:18:23;20.00;;;11.18;;
51838;SDS011;37886;53.174;6.368;2022-11-11T01:23:36;25.63;;;11.43;;
51838;SDS011;37886;53.174;6.368;2022-11-11T01:26:13;28.17;;;13.15;;
51838;SDS011;37886;53.174;6.368;2022-11-11T01:28:41;21.45;;;11.70;;
51838;SDS011;37886;53.174;6.368;2022-11-11T01:31:09;26.00;;;12.20;;
51838;SDS011;37886;53.174;6.368;2022-11-11T01:33:38;24.50;;;11.70;;
51838;SDS011;37886;53.174;6.368;2022-11-11T01:36:08;19.67;;;10.88;;
51838;SDS011;37886;53.174;6.368;2022-11-11T01:38:36;25.33;;;13.10;;
51838;SDS011;37886;53.174;6.368;2022-11-11T01:41:03;26.17;;;11.73;;
51838;SDS011;37886;53.174;6.368;2022-11-11T01:43:51;24.27;;;12.35;;
51838;SDS011;37886;53.174;6.368;2022-11-11T01:46:28;30.05;;;11.88;;
51838;SDS011;37886;53.174;6.368;2022-11-11T01:48:56;21.27;;;11.75;;
51838;SDS011;37886;53.174;6.368;2022-11-11T01:54:31;23.77;;;11.32;;
51838;SDS011;37886;53.174;6.368;2022-11-11T01:57:13;23.15;;;12.60;;
51838;SDS011;37886;53.174;6.368;2022-11-11T01:59:52;29.45;;;12.13;;
51838;SDS011;37886;53.174;6.368;2022-11-11T02:02:26;22.10;;;12.32;;
51838;SDS011;37886;53.174;6.368;2022-11-11T02:05:06;28.38;;;12.63;;
51838;SDS011;37886;53.174;6.368;2022-11-11T02:07:53;27.08;;;12.13;;
51838;SDS011;37886;53.174;6.368;2022-11-11T02:10:22;26.25;;;11.68;;
51838;SDS011;37886;53.174;6.368;2022-11-11T02:12:49;21.65;;;12.50;;
51838;SDS011;37886;53.174;6.368;2022-11-11T02:15:34;22.88;;;12.35;;
51838;SDS011;37886;53.174;6.368;2022-11-11T02:18:01;24.02;;;12.45;;
51838;SDS011;37886;53.174;6.368;2022-11-11T02:20:27;24.17;;;11.75;;
51838;SDS011;37886;53.174;6.368;2022-11-11T02:22:57;29.00;;;14.40;;
51838;SDS011;37886;53.174;6.368;2022-11-11T02:25:48;31.33;;;13.73;;
51838;SDS011;37886;53.174;6.368;2022-11-11T02:28:15;21.05;;;11.27;;
51838;SDS011;37886;53.174;6.368;2022-11-11T02:30:43;26.55;;;13.00;;
51838;SDS011;37886;53.174;6.368;2022-11-11T02:33:09;27.80;;;13.13;;
51838;SDS011;37886;53.174;6.368;2022-11-11T02:35:40;29.17;;;14.57;;
51838;SDS011;37886;53.174;6.368;2022-11-11T02:38:09;27.80;;;14.98;;
51838;SDS011;37886;53.174;6.368;2022-11-11T02:43:03;27.98;;;13.88;;
51838;SDS011;37886;53.174;6.368;2022-11-11T02:45:30;30.85;;;15.35;;
51838;SDS011;37886;53.174;6.368;2022-11-11T02:47:55;26.85;;;15.10;;
51838;SDS011;37886;53.174;6.368;2022-11-11T02:50:21;24.75;;;15.90;;
51838;SDS011;37886;53.174;6.368;2022-11-11T02:52:47;30.63;;;16.55;;
51838;SDS011;37886;53.174;6.368;2022-11-11T02:55:12;26.83;;;17.00;;
51838;SDS011;37886;53.174;6.368;2022-11-11T02:57:38;26.42;;;17.25;;
51838;SDS011;37886;53.174;6.368;2022-11-11T03:00:04;33.38;;;18.48;;
51838;SDS011;37886;53.174;6.368;2022-11-11T03:02:30;30.55;;;17.92;;
51838;SDS011;37886;53.174;6.368;2022-11-11T03:04:56;33.17;;;18.55;;
51838;SDS011;37886;53.174;6.368;2022-11-11T03:07:22;39.58;;;21.30;;
51838;SDS011;37886;53.174;6.368;2022-11-11T03:09:49;32.38;;;20.25;;
51838;SDS011;37886;53.174;6.368;2022-11-11T03:12:15;31.08;;;19.98;;
51838;SDS011;37886;53.174;6.368;2022-11-11T03:14:41;38.60;;;22.98;;
51838;SDS011;37886;53.174;6.368;2022-11-11T03:17:08;32.35;;;20.35;;
51838;SDS011;37886;53.174;6.368;2022-11-11T03:19:52;32.72;;;21.70;;
51838;SDS011;37886;53.174;6.368;2022-11-11T03:22:37;35.15;;;21.30;;
51838;SDS011;37886;53.174;6.368;2022-11-11T03:25:03;37.20;;;21.48;;
51838;SDS011;37886;53.174;6.368;2022-11-11T03:27:48;31.77;;;22.52;;
51838;SDS011;37886;53.174;6.368;2022-11-11T03:30:14;37.30;;;22.35;;
51838;SDS011;37886;53.174;6.368;2022-11-11T03:32:39;34.30;;;22.02;;
51838;SDS011;37886;53.174;6.368;2022-11-11T03:35:05;36.33;;;23.77;;
51838;SDS011;37886;53.174;6.368;2022-11-11T03:37:31;34.40;;;23.90;;
51838;SDS011;37886;53.174;6.368;2022-11-11T03:40:15;36.72;;;23.10;;
51838;SDS011;37886;53.174;6.368;2022-11-11T03:42:41;39.53;;;25.50;;
51838;SDS011;37886;53.174;6.368;2022-11-11T03:45:08;35.63;;;22.80;;
51838;SDS011;37886;53.174;6.368;2022-11-11T03:47:34;38.53;;;24.65;;
51838;SDS011;37886;53.174;6.368;2022-11-11T03:49:59;38.25;;;24.42;;
51838;SDS011;37886;53.174;6.368;2022-11-11T03:52:25;35.55;;;23.23;;
51838;SDS011;37886;53.174;6.368;2022-11-11T03:54:50;34.20;;;23.30;;
51838;SDS011;37886;53.174;6.368;2022-11-11T03:57:16;37.65;;;27.15;;
51838;SDS011;37886;53.174;6.368;2022-11-11T03:59:57;39.10;;;24.10;;
51838;SDS011;37886;53.174;6.368;2022-11-11T04:02:22;43.05;;;25.30;;
51838;SDS011;37886;53.174;6.368;2022-11-11T04:05:07;33.15;;;24.30;;
51838;SDS011;37886;53.174;6.368;2022-11-11T04:07:51;38.25;;;25.08;;
51838;SDS011;37886;53.174;6.368;2022-11-11T04:10:36;46.28;;;28.20;;
51838;SDS011;37886;53.174;6.368;2022-11-11T04:13:01;43.33;;;28.55;;
51838;SDS011;37886;53.174;6.368;2022-11-11T04:15:47;39.67;;;27.65;;
51838;SDS011;37886;53.174;6.368;2022-11-11T04:18:31;44.35;;;27.10;;
51838;SDS011;37886;53.174;6.368;2022-11-11T04:21:15;40.45;;;28.77;;
51838;SDS011;37886;53.174;6.368;2022-11-11T04:24:00;42.13;;;28.58;;
51838;SDS011;37886;53.174;6.368;2022-11-11T04:26:26;50.22;;;29.20;;
51838;SDS011;37886;53.174;6.368;2022-11-11T04:28:52;52.40;;;29.60;;
51838;SDS011;37886;53.174;6.368;2022-11-11T04:31:36;43.55;;;29.45;;
51838;SDS011;37886;53.174;6.368;2022-11-11T04:34:22;45.65;;;28.42;;
51838;SDS011;37886;53.174;6.368;2022-11-11T04:36:47;43.30;;;29.33;;
51838;SDS011;37886;53.174;6.368;2022-11-11T04:39:13;41.25;;;27.50;;
51838;SDS011;37886;53.174;6.368;2022-11-11T04:41:57;44.60;;;29.23;;
51838;SDS011;37886;53.174;6.368;2022-11-11T04:44:23;40.50;;;28.58;;
51838;SDS011;37886;53.174;6.368;2022-11-11T04:47:07;41.20;;;28.38;;
51838;SDS011;37886;53.174;6.368;2022-11-11T04:49:33;41.80;;;27.35;;
51838;SDS011;37886;53.174;6.368;2022-11-11T04:51:58;48.95;;;30.38;;
51838;SDS011;37886;53.174;6.368;2022-11-11T04:54:43;46.75;;;31.23;;
51838;SDS011;37886;53.174;6.368;2022-11-11T04:57:27;41.63;;;28.23;;
51838;SDS011;37886;53.174;6.368;2022-11-11T04:59:52;43.75;;;32.05;;
51838;SDS011;37886;53.174;6.368;2022-11-11T05:02:18;47.33;;;30.05;;
51838;SDS011;37886;53.174;6.368;2022-11-11T05:05:02;50.95;;;32.65;;
51838;SDS011;37886;53.174;6.368;2022-11-11T05:07:29;44.97;;;28.25;;
51838;SDS011;37886;53.174;6.368;2022-11-11T05:10:13;43.97;;;29.02;;
51838;SDS011;37886;53.174;6.368;2022-11-11T05:12:39;45.08;;;31.48;;
51838;SDS011;37886;53.174;6.368;2022-11-11T05:15:04;51.22;;;33.03;;
51838;SDS011;37886;53.174;6.368;2022-11-11T05:17:49;48.38;;;32.25;;
51838;SDS011;37886;53.174;6.368;2022-11-11T05:20:33;47.13;;;30.00;;
51838;SDS011;37886;53.174;6.368;2022-11-11T05:23:18;45.20;;;32.55;;
51838;SDS011;37886;53.174;6.368;2022-11-11T05:25:43;51.63;;;33.83;;
51838;SDS011;37886;53.174;6.368;2022-11-11T05:28:09;51.25;;;32.95;;
51838;SDS011;37886;53.174;6.368;2022-11-11T05:30:34;51.17;;;33.10;;
51838;SDS011;37886;53.174;6.368;2022-11-11T05:33:05;48.67;;;30.23;;
51838;SDS011;37886;53.174;6.368;2022-11-11T05:35:31;49.97;;;33.42;;
51838;SDS011;37886;53.174;6.368;2022-11-11T05:38:00;50.70;;;34.30;;
51838;SDS011;37886;53.174;6.368;2022-11-11T05:40:44;51.15;;;33.25;;
51838;SDS011;37886;53.174;6.368;2022-11-11T05:43:09;55.42;;;33.63;;
51838;SDS011;37886;53.174;6.368;2022-11-11T05:45:35;56.28;;;34.17;;
51838;SDS011;37886;53.174;6.368;2022-11-11T05:48:01;53.08;;;36.10;;
51838;SDS011;37886;53.174;6.368;2022-11-11T05:50:27;54.35;;;34.35;;
51838;SDS011;37886;53.174;6.368;2022-11-11T05:52:52;53.80;;;33.53;;
51838;SDS011;37886;53.174;6.368;2022-11-11T05:55:20;61.58;;;37.35;;
51838;SDS011;37886;53.174;6.368;2022-11-11T05:57:46;48.03;;;35.25;;
51838;SDS011;37886;53.174;6.368;2022-11-11T06:00:11;58.38;;;34.63;;
51838;SDS011;37886;53.174;6.368;2022-11-11T06:02:38;55.65;;;35.33;;
51838;SDS011;37886;53.174;6.368;2022-11-11T06:05:03;60.90;;;32.17;;
51838;SDS011;37886;53.174;6.368;2022-11-11T06:07:29;58.42;;;34.13;;
51838;SDS011;37886;53.174;6.368;2022-11-11T06:09:55;53.90;;;33.38;;
51838;SDS011;37886;53.174;6.368;2022-11-11T06:12:41;54.58;;;32.58;;
51838;SDS011;37886;53.174;6.368;2022-11-11T06:18:20;48.03;;;31.42;;
51838;SDS011;37886;53.174;6.368;2022-11-11T06:20:51;44.17;;;29.98;;
51838;SDS011;37886;53.174;6.368;2022-11-11T06:23:21;53.83;;;32.13;;
51838;SDS011;37886;53.174;6.368;2022-11-11T06:25:47;45.85;;;29.63;;
51838;SDS011;37886;53.174;6.368;2022-11-11T06:28:32;47.83;;;29.42;;
51838;SDS011;37886;53.174;6.368;2022-11-11T06:30:58;51.50;;;31.48;;
51838;SDS011;37886;53.174;6.368;2022-11-11T06:33:24;47.83;;;32.95;;
51838;SDS011;37886;53.174;6.368;2022-11-11T06:35:49;49.83;;;30.10;;
51838;SDS011;37886;53.174;6.368;2022-11-11T06:38:16;52.38;;;32.67;;
51838;SDS011;37886;53.174;6.368;2022-11-11T06:40:42;49.03;;;33.15;;
51838;SDS011;37886;53.174;6.368;2022-11-11T06:43:08;49.00;;;31.08;;
51838;SDS011;37886;53.174;6.368;2022-11-11T06:45:34;51.50;;;33.75;;
51838;SDS011;37886;53.174;6.368;2022-11-11T06:48:00;58.13;;;31.33;;
51838;SDS011;37886;53.174;6.368;2022-11-11T06:50:27;48.47;;;32.97;;
51838;SDS011;37886;53.174;6.368;2022-11-11T06:52:55;55.83;;;34.13;;
51838;SDS011;37886;53.174;6.368;2022-11-11T06:55:21;45.88;;;30.40;;
51838;SDS011;37886;53.174;6.368;2022-11-11T06:57:46;54.45;;;32.72;;
51838;SDS011;37886;53.174;6.368;2022-11-11T07:00:15;45.67;;;30.40;;
51838;SDS011;37886;53.174;6.368;2022-11-11T07:02:44;48.60;;;30.63;;
51838;SDS011;37886;53.174;6.368;2022-11-11T07:05:11;55.53;;;34.15;;
51838;SDS011;37886;53.174;6.368;2022-11-11T07:07:37;50.05;;;32.38;;
51838;SDS011;37886;53.174;6.368;2022-11-11T07:10:03;56.00;;;33.03;;
51838;SDS011;37886;53.174;6.368;2022-11-11T07:12:31;49.65;;;31.92;;
51838;SDS011;37886;53.174;6.368;2022-11-11T07:14:59;49.75;;;32.95;;
51838;SDS011;37886;53.174;6.368;2022-11-11T07:17:25;50.83;;;32.88;;
51838;SDS011;37886;53.174;6.368;2022-11-11T07:19:50;47.72;;;32.67;;
51838;SDS011;37886;53.174;6.368;2022-11-11T07:22:16;49.08;;;33.20;;
51838;SDS011;37886;53.174;6.368;2022-11-11T07:24:41;49.65;;;33.28;;
51838;SDS011;37886;53.174;6.368;2022-11-11T07:27:07;56.53;;;35.25;;
51838;SDS011;37886;53.174;6.368;2022-11-11T07:29:33;50.47;;;31.80;;
51838;SDS011;37886;53.174;6.368;2022-11-11T07:31:59;52.97;;;33.15;;
51838;SDS011;37886;53.174;6.368;2022-11-11T07:34:24;51.50;;;32.35;;
51838;SDS011;37886;53.174;6.368;2022-11-11T07:36:50;48.05;;;32.45;;
51838;SDS011;37886;53.174;6.368;2022-11-11T07:39:16;52.08;;;32.90;;
51838;SDS011;37886;53.174;6.368;2022-11-11T07:41:41;53.97;;;34.20;;
51838;SDS011;37886;53.174;6.368;2022-11-11T07:44:07;49.70;;;32.92;;
51838;SDS011;37886;53.174;6.368;2022-11-11T07:46:32;48.22;;;31.42;;
51838;SDS011;37886;53.174;6.368;2022-11-11T07:48:58;46.75;;;30.20;;
51838;SDS011;37886;53.174;6.368;2022-11-11T07:51:24;44.80;;;29.67;;
51838;SDS011;37886;53.174;6.368;2022-11-11T07:53:49;47.88;;;32.22;;
51838;SDS011;37886;53.174;6.368;2022-11-11T07:56:15;48.45;;;31.63;;
51838;SDS011;37886;53.174;6.368;2022-11-11T07:58:41;53.92;;;32.28;;
51838;SDS011;37886;53.174;6.368;2022-11-11T08:01:06;45.90;;;33.25;;
51838;SDS011;37886;53.174;6.368;2022-11-11T08:03:32;49.65;;;32.88;;
51838;SDS011;37886;53.174;6.368;2022-11-11T08:05:59;46.25;;;32.03;;
51838;SDS011;37886;53.174;6.368;2022-11-11T08:08:26;43.97;;;30.50;;
51838;SDS011;37886;53.174;6.368;2022-11-11T08:10:53;52.00;;;32.97;;
51838;SDS011;37886;53.174;6.368;2022-11-11T08:13:19;46.40;;;30.75;;
51838;SDS011;37886;53.174;6.368;2022-11-11T08:16:03;46.88;;;30.40;;
51838;SDS011;37886;53.174;6.368;2022-11-11T08:18:31;52.15;;;33.00;;
51838;SDS011;37886;53.174;6.368;2022-11-11T08:20:57;47.10;;;31.95;;
51838;SDS011;37886;53.174;6.368;2022-11-11T08:23:23;48.33;;;31.50;;
51838;SDS011;37886;53.174;6.368;2022-11-11T08:25:59;48.10;;;31.35;;
51838;SDS011;37886;53.174;6.368;2022-11-11T08:28:29;51.58;;;33.38;;
51838;SDS011;37886;53.174;6.368;2022-11-11T08:31:00;51.78;;;31.55;;
51838;SDS011;37886;53.174;6.368;2022-11-11T08:33:26;46.85;;;31.27;;
51838;SDS011;37886;53.174;6.368;2022-11-11T08:35:59;46.90;;;32.75;;
51838;SDS011;37886;53.174;6.368;2022-11-11T08:38:26;48.10;;;34.05;;
51838;SDS011;37886;53.174;6.368;2022-11-11T08:40:52;50.42;;;34.05;;
51838;SDS011;37886;53.174;6.368;2022-11-11T08:43:19;49.30;;;33.83;;
51838;SDS011;37886;53.174;6.368;2022-11-11T08:45:46;58.10;;;34.63;;
51838;SDS011;37886;53.174;6.368;2022-11-11T08:48:12;52.05;;;33.63;;
51838;SDS011;37886;53.174;6.368;2022-11-11T08:50:38;52.58;;;33.08;;
51838;SDS011;37886;53.174;6.368;2022-11-11T08:53:05;51.72;;;33.28;;
51838;SDS011;37886;53.174;6.368;2022-11-11T08:55:35;45.22;;;31.42;;
51838;SDS011;37886;53.174;6.368;2022-11-11T08:58:03;55.90;;;33.53;;
51838;SDS011;37886;53.174;6.368;2022-11-11T09:00:30;45.15;;;32.22;;
51838;SDS011;37886;53.174;6.368;2022-11-11T09:03:00;52.83;;;32.13;;
51838;SDS011;37886;53.174;6.368;2022-11-11T09:05:27;45.60;;;31.63;;
51838;SDS011;37886;53.174;6.368;2022-11-11T09:07:53;50.05;;;30.17;;
51838;SDS011;37886;53.174;6.368;2022-11-11T09:10:19;45.10;;;31.13;;
51838;SDS011;37886;53.174;6.368;2022-11-11T09:12:45;46.70;;;29.65;;
51838;SDS011;37886;53.174;6.368;2022-11-11T09:15:11;49.85;;;33.75;;
51838;SDS011;37886;53.174;6.368;2022-11-11T09:17:36;45.78;;;32.38;;
51838;SDS011;37886;53.174;6.368;2022-11-11T09:20:05;47.72;;;30.73;;
51838;SDS011;37886;53.174;6.368;2022-11-11T09:22:31;44.17;;;32.92;;
51838;SDS011;37886;53.174;6.368;2022-11-11T09:24:57;42.03;;;30.40;;
51838;SDS011;37886;53.174;6.368;2022-11-11T09:27:23;48.38;;;31.75;;
51838;SDS011;37886;53.174;6.368;2022-11-11T09:29:48;51.90;;;31.77;;
51838;SDS011;37886;53.174;6.368;2022-11-11T09:32:14;42.35;;;29.30;;
51838;SDS011;37886;53.174;6.368;2022-11-11T09:34:40;50.67;;;29.45;;
51838;SDS011;37886;53.174;6.368;2022-11-11T09:37:05;50.10;;;30.85;;
51838;SDS011;37886;53.174;6.368;2022-11-11T09:39:31;55.60;;;33.60;;
51838;SDS011;37886;53.174;6.368;2022-11-11T09:42:03;49.00;;;32.72;;
51838;SDS011;37886;53.174;6.368;2022-11-11T09:50:00;46.90;;;31.95;;
51838;SDS011;37886;53.174;6.368;2022-11-11T09:57:57;47.72;;;32.58;;
51838;SDS011;37886;53.174;6.368;2022-11-11T10:00:28;50.45;;;32.33;;
51838;SDS011;37886;53.174;6.368;2022-11-11T10:05:45;50.92;;;33.85;;
51838;SDS011;37886;53.174;6.368;2022-11-11T10:10:50;51.60;;;33.03;;
51838;SDS011;37886;53.174;6.368;2022-11-11T10:13:39;48.83;;;30.25;;
51838;SDS011;37886;53.174;6.368;2022-11-11T10:16:27;47.03;;;32.00;;
51838;SDS011;37886;53.174;6.368;2022-11-11T10:22:18;50.58;;;31.00;;
51838;SDS011;37886;53.174;6.368;2022-11-11T10:24:52;47.30;;;32.30;;
51838;SDS011;37886;53.174;6.368;2022-11-11T10:29:57;46.88;;;29.58;;
51838;SDS011;37886;53.174;6.368;2022-11-11T10:32:24;48.20;;;32.10;;
51838;SDS011;37886;53.174;6.368;2022-11-11T10:34:52;45.40;;;29.75;;
51838;SDS011;37886;53.174;6.368;2022-11-11T10:37:34;47.30;;;30.95;;
51838;SDS011;37886;53.174;6.368;2022-11-11T10:40:17;43.28;;;29.90;;
51838;SDS011;37886;53.174;6.368;2022-11-11T10:43:27;48.63;;;32.45;;
51838;SDS011;37886;53.174;6.368;2022-11-11T10:48:46;45.72;;;30.13;;
51838;SDS011;37886;53.174;6.368;2022-11-11T10:51:16;42.75;;;27.73;;
51838;SDS011;37886;53.174;6.368;2022-11-11T10:59:13;36.22;;;26.83;;
51838;SDS011;37886;53.174;6.368;2022-11-11T11:04:36;43.17;;;29.02;;
51838;SDS011;37886;53.174;6.368;2022-11-11T11:07:18;39.80;;;27.10;;
51838;SDS011;37886;53.174;6.368;2022-11-11T11:09:59;41.60;;;27.58;;
51838;SDS011;37886;53.174;6.368;2022-11-11T11:12:30;34.95;;;25.75;;
51838;SDS011;37886;53.174;6.368;2022-11-11T11:15:22;35.80;;;25.52;;
51838;SDS011;37886;53.174;6.368;2022-11-11T11:20:30;33.47;;;25.42;;
51838;SDS011;37886;53.174;6.368;2022-11-11T11:22:57;34.83;;;25.23;;
51838;SDS011;37886;53.174;6.368;2022-11-11T11:25:26;34.78;;;24.50;;
51838;SDS011;37886;53.174;6.368;2022-11-11T11:31:03;34.15;;;25.52;;
51838;SDS011;37886;53.174;6.368;2022-11-11T11:33:52;34.42;;;24.08;;
51838;SDS011;37886;53.174;6.368;2022-11-11T11:36:16;29.10;;;22.95;;
51838;SDS011;37886;53.174;6.368;2022-11-11T11:38:43;30.10;;;22.45;;
51838;SDS011;37886;53.174;6.368;2022-11-11T11:41:11;32.35;;;23.77;;
51838;SDS011;37886;53.174;6.368;2022-11-11T11:43:38;31.75;;;23.10;;
51838;SDS011;37886;53.174;6.368;2022-11-11T11:46:19;31.55;;;22.85;;
51838;SDS011;37886;53.174;6.368;2022-11-11T12:00:02;30.02;;;21.95;;
51838;SDS011;37886;53.174;6.368;2022-11-11T12:13:32;34.92;;;24.35;;
51838;SDS011;37886;53.174;6.368;2022-11-11T12:16:23;33.90;;;21.70;;
51838;SDS011;37886;53.174;6.368;2022-11-11T12:21:33;26.88;;;20.75;;
51838;SDS011;37886;53.174;6.368;2022-11-11T12:34:59;27.55;;;21.15;;
51838;SDS011;37886;53.174;6.368;2022-11-11T12:50:23;30.88;;;20.38;;
51838;SDS011;37886;53.174;6.368;2022-11-11T12:53:03;28.88;;;20.40;;
51838;SDS011;37886;53.174;6.368;2022-11-11T12:55:50;28.13;;;20.80;;
51838;SDS011;37886;53.174;6.368;2022-11-11T12:58:27;31.48;;;20.17;;
51838;SDS011;37886;53.174;6.368;2022-11-11T13:14:37;33.20;;;23.90;;
51838;SDS011;37886;53.174;6.368;2022-11-11T13:17:21;33.22;;;24.80;;
51838;SDS011;37886;53.174;6.368;2022-11-11T13:19:57;33.38;;;22.83;;
51838;SDS011;37886;53.174;6.368;2022-11-11T13:22:31;35.45;;;25.00;;
51838;SDS011;37886;53.174;6.368;2022-11-11T13:24:57;36.88;;;24.88;;
51838;SDS011;37886;53.174;6.368;2022-11-11T13:27:41;37.00;;;24.63;;
51838;SDS011;37886;53.174;6.368;2022-11-11T13:30:31;37.08;;;26.27;;
51838;SDS011;37886;53.174;6.368;2022-11-11T13:33:17;33.70;;;25.17;;
51838;SDS011;37886;53.174;6.368;2022-11-11T13:35:47;40.35;;;27.30;;
51838;SDS011;37886;53.174;6.368;2022-11-11T13:38:44;39.15;;;26.80;;
51838;SDS011;37886;53.174;6.368;2022-11-11T13:41:18;33.95;;;24.75;;
51838;SDS011;37886;53.174;6.368;2022-11-11T13:43:50;32.33;;;24.70;;
51838;SDS011;37886;53.174;6.368;2022-11-11T13:49:08;33.03;;;24.17;;
51838;SDS011;37886;53.174;6.368;2022-11-11T13:51:57;34.60;;;25.75;;
51838;SDS011;37886;53.174;6.368;2022-11-11T13:57:03;34.92;;;24.65;;
51838;SDS011;37886;53.174;6.368;2022-11-11T13:59:30;36.28;;;25.60;;
51838;SDS011;37886;53.174;6.368;2022-11-11T14:18:02;35.92;;;26.60;;
51838;SDS011;37886;53.174;6.368;2022-11-11T14:24:00;35.95;;;25.58;;
51838;SDS011;37886;53.174;6.368;2022-11-11T14:28:31;35.78;;;25.38;;
51838;SDS011;37886;53.174;6.368;2022-11-11T14:31:33;37.78;;;26.30;;
51838;SDS011;37886;53.174;6.368;2022-11-11T14:39:43;35.20;;;26.25;;
51838;SDS011;37886;53.174;6.368;2022-11-11T14:45:00;35.97;;;25.35;;
51838;SDS011;37886;53.174;6.368;2022-11-11T14:47:31;35.08;;;22.92;;
51838;SDS011;37886;53.174;6.368;2022-11-11T14:49:59;34.35;;;23.42;;
51838;SDS011;37886;53.174;6.368;2022-11-11T14:55:12;33.42;;;26.17;;
51838;SDS011;37886;53.174;6.368;2022-11-11T14:57:47;37.78;;;25.77;;
51838;SDS011;37886;53.174;6.368;2022-11-11T15:00:22;35.55;;;25.55;;
51838;SDS011;37886;53.174;6.368;2022-11-11T15:05:39;31.65;;;23.08;;
51838;SDS011;37886;53.174;6.368;2022-11-11T15:16:36;40.00;;;26.50;;
51838;SDS011;37886;53.174;6.368;2022-11-11T15:22:14;38.13;;;28.13;;
51838;SDS011;37886;53.174;6.368;2022-11-11T15:36:32;39.38;;;26.20;;
51838;SDS011;37886;53.174;6.368;2022-11-11T15:39:11;37.35;;;27.50;;
51838;SDS011;37886;53.174;6.368;2022-11-11T15:41:40;34.42;;;25.75;;
51838;SDS011;37886;53.174;6.368;2022-11-11T15:46:52;37.92;;;26.38;;
51838;SDS011;37886;53.174;6.368;2022-11-11T15:49:38;38.67;;;26.50;;
51838;SDS011;37886;53.174;6.368;2022-11-11T15:54:57;32.53;;;25.08;;
51838;SDS011;37886;53.174;6.368;2022-11-11T15:57:24;36.13;;;26.25;;
51838;SDS011;37886;53.174;6.368;2022-11-11T15:59:54;35.13;;;26.27;;
51838;SDS011;37886;53.174;6.368;2022-11-11T16:02:22;36.83;;;26.20;;
51838;SDS011;37886;53.174;6.368;2022-11-11T16:04:54;39.47;;;26.88;;
51838;SDS011;37886;53.174;6.368;2022-11-11T16:07:43;36.60;;;26.30;;
51838;SDS011;37886;53.174;6.368;2022-11-11T16:12:47;39.38;;;27.38;;
51838;SDS011;37886;53.174;6.368;2022-11-11T16:15:25;36.53;;;26.45;;
51838;SDS011;37886;53.174;6.368;2022-11-11T16:17:58;36.50;;;26.98;;
51838;SDS011;37886;53.174;6.368;2022-11-11T16:20:29;37.95;;;27.10;;
51838;SDS011;37886;53.174;6.368;2022-11-11T16:23:01;41.58;;;28.35;;
51838;SDS011;37886;53.174;6.368;2022-11-11T16:25:30;40.25;;;29.67;;
51838;SDS011;37886;53.174;6.368;2022-11-11T16:27:56;36.75;;;28.58;;
51838;SDS011;37886;53.174;6.368;2022-11-11T16:30:32;44.40;;;30.98;;
51838;SDS011;37886;53.174;6.368;2022-11-11T16:32:59;42.05;;;28.42;;
51838;SDS011;37886;53.174;6.368;2022-11-11T16:35:27;40.33;;;28.42;;
51838;SDS011;37886;53.174;6.368;2022-11-11T16:37:54;37.88;;;26.13;;
51838;SDS011;37886;53.174;6.368;2022-11-11T16:40:23;37.88;;;26.95;;
51838;SDS011;37886;53.174;6.368;2022-11-11T16:45:45;42.72;;;31.33;;
51838;SDS011;37886;53.174;6.368;2022-11-11T16:48:48;42.22;;;30.48;;
51838;SDS011;37886;53.174;6.368;2022-11-11T16:51:09;45.03;;;32.25;;
51838;SDS011;37886;53.174;6.368;2022-11-11T16:53:39;40.58;;;29.58;;
51838;SDS011;37886;53.174;6.368;2022-11-11T16:56:15;43.83;;;31.98;;
51838;SDS011;37886;53.174;6.368;2022-11-11T16:58:58;44.22;;;28.73;;
51838;SDS011;37886;53.174;6.368;2022-11-11T17:01:38;44.35;;;31.92;;
51838;SDS011;37886;53.174;6.368;2022-11-11T17:04:08;44.08;;;31.98;;
51838;SDS011;37886;53.174;6.368;2022-11-11T17:06:45;43.08;;;28.40;;
51838;SDS011;37886;53.174;6.368;2022-11-11T17:09:52;48.35;;;32.17;;
51838;SDS011;37886;53.174;6.368;2022-11-11T17:12:11;46.33;;;30.80;;
51838;SDS011;37886;53.174;6.368;2022-11-11T17:14:38;41.05;;;29.00;;
51838;SDS011;37886;53.174;6.368;2022-11-11T17:17:04;41.63;;;28.88;;
51838;SDS011;37886;53.174;6.368;2022-11-11T17:19:32;45.85;;;29.75;;
51838;SDS011;37886;53.174;6.368;2022-11-11T17:22:05;42.95;;;28.60;;
51838;SDS011;37886;53.174;6.368;2022-11-11T17:24:35;44.50;;;31.83;;
51838;SDS011;37886;53.174;6.368;2022-11-11T17:27:02;43.78;;;31.13;;
51838;SDS011;37886;53.174;6.368;2022-11-11T17:29:28;47.63;;;31.33;;
51838;SDS011;37886;53.174;6.368;2022-11-11T17:31:54;43.25;;;30.85;;
51838;SDS011;37886;53.174;6.368;2022-11-11T17:34:20;44.45;;;31.98;;
51838;SDS011;37886;53.174;6.368;2022-11-11T17:36:46;47.50;;;31.52;;
51838;SDS011;37886;53.174;6.368;2022-11-11T17:39:12;41.05;;;29.63;;
51838;SDS011;37886;53.174;6.368;2022-11-11T17:41:37;41.30;;;27.23;;
51838;SDS011;37886;53.174;6.368;2022-11-11T17:44:03;51.67;;;30.27;;
51838;SDS011;37886;53.174;6.368;2022-11-11T17:46:29;41.90;;;27.55;;
51838;SDS011;37886;53.174;6.368;2022-11-11T17:48:54;44.88;;;29.98;;
51838;SDS011;37886;53.174;6.368;2022-11-11T17:51:21;43.50;;;29.58;;